sensor_id;sensor_type;location;lat;lon;timestamp;temperature;humidity
11047;DHT22;5576;50.008;10.596;2023-07-13T00:00:30;21.90;99.90
11047;DHT22;5576;50.008;10.596;2023-07-13T00:02:57;21.90;99.90
11047;DHT22;5576;50.008;10.596;2023-07-13T00:05:23;21.90;99.90
11047;DHT22;5576;50.008;10.596;2023-07-13T00:07:50;21.90;99.90
11047;DHT22;5576;50.008;10.596;2023-07-13T00:10:16;21.80;99.90
11047;DHT22;5576;50.008;10.596;2023-07-13T00:12:43;21.80;99.90
11047;DHT22;5576;50.008;10.596;2023-07-13T00:15:14;21.80;99.90
11047;DHT22;5576;50.008;10.596;2023-07-13T00:17:42;21.80;99.90
11047;DHT22;5576;50.008;10.596;2023-07-13T00:20:10;21.80;99.90
11047;DHT22;5576;50.008;10.596;2023-07-13T00:22:36;21.80;99.90
11047;DHT22;5576;50.008;10.596;2023-07-13T00:25:02;21.80;99.90
11047;DHT22;5576;50.008;10.596;2023-07-13T00:27:28;21.80;99.90
11047;DHT22;5576;50.008;10.596;2023-07-13T00:29:57;21.70;99.90
11047;DHT22;5576;50.008;10.596;2023-07-13T00:32:24;21.60;99.90
11047;DHT22;5576;50.008;10.596;2023-07-13T00:34:52;20.70;99.90
11047;DHT22;5576;50.008;10.596;2023-07-13T00:37:18;21.50;99.90
11047;DHT22;5576;50.008;10.596;2023-07-13T00:39:43;21.40;99.90
11047;DHT22;5576;50.008;10.596;2023-07-13T00:42:09;21.30;99.90
11047;DHT22;5576;50.008;10.596;2023-07-13T00:44:35;21.20;99.90
11047;DHT22;5576;50.008;10.596;2023-07-13T00:47:01;21.20;99.90
11047;DHT22;5576;50.008;10.596;2023-07-13T00:49:30;21.00;99.90
11047;DHT22;5576;50.008;10.596;2023-07-13T00:52:03;21.00;99.90
11047;DHT22;5576;50.008;10.596;2023-07-13T00:54:37;20.80;99.90
11047;DHT22;5576;50.008;10.596;2023-07-13T00:57:07;20.60;99.90
11047;DHT22;5576;50.008;10.596;2023-07-13T00:59:36;20.50;99.90
11047;DHT22;5576;50.008;10.596;2023-07-13T01:02:04;19.30;99.90
11047;DHT22;5576;50.008;10.596;2023-07-13T01:04:30;20.30;99.90
11047;DHT22;5576;50.008;10.596;2023-07-13T01:06:57;20.20;99.90
11047;DHT22;5576;50.008;10.596;2023-07-13T01:09:23;20.30;99.90
11047;DHT22;5576;50.008;10.596;2023-07-13T01:11:49;24.10;99.90
11047;DHT22;5576;50.008;10.596;2023-07-13T01:14:15;17.70;99.90
11047;DHT22;5576;50.008;10.596;2023-07-13T01:16:44;20.10;99.90
11047;DHT22;5576;50.008;10.596;2023-07-13T01:21:50;20.10;99.90
11047;DHT22;5576;50.008;10.596;2023-07-13T01:24:16;20.20;99.90
11047;DHT22;5576;50.008;10.596;2023-07-13T01:26:42;20.10;99.90
11047;DHT22;5576;50.008;10.596;2023-07-13T01:29:08;20.00;99.90
11047;DHT22;5576;50.008;10.596;2023-07-13T01:31:34;19.90;99.90
11047;DHT22;5576;50.008;10.596;2023-07-13T01:34:00;19.90;99.90
11047;DHT22;5576;50.008;10.596;2023-07-13T01:36:26;18.80;99.90
11047;DHT22;5576;50.008;10.596;2023-07-13T01:38:52;17.50;99.90
11047;DHT22;5576;50.008;10.596;2023-07-13T01:41:18;19.60;99.90
11047;DHT22;5576;50.008;10.596;2023-07-13T01:43:45;19.50;99.90
11047;DHT22;5576;50.008;10.596;2023-07-13T01:46:11;19.40;99.90
11047;DHT22;5576;50.008;10.596;2023-07-13T01:48:36;19.40;99.90
11047;DHT22;5576;50.008;10.596;2023-07-13T01:51:02;19.50;99.90
11047;DHT22;5576;50.008;10.596;2023-07-13T01:53:28;16.00;99.90
11047;DHT22;5576;50.008;10.596;2023-07-13T01:55:54;19.20;99.90
11047;DHT22;5576;50.008;10.596;2023-07-13T01:58:20;19.10;99.90
11047;DHT22;5576;50.008;10.596;2023-07-13T02:00:48;18.90;99.90
11047;DHT22;5576;50.008;10.596;2023-07-13T02:03:14;18.80;99.90
11047;DHT22;5576;50.008;10.596;2023-07-13T02:05:44;18.50;99.90
11047;DHT22;5576;50.008;10.596;2023-07-13T02:08:10;18.60;99.90
11047;DHT22;5576;50.008;10.596;2023-07-13T02:10:37;18.80;99.90
11047;DHT22;5576;50.008;10.596;2023-07-13T02:13:05;18.70;99.90
11047;DHT22;5576;50.008;10.596;2023-07-13T02:15:31;22.00;99.90
11047;DHT22;5576;50.008;10.596;2023-07-13T02:17:57;18.40;99.90
11047;DHT22;5576;50.008;10.596;2023-07-13T02:20:24;13.80;99.90
11047;DHT22;5576;50.008;10.596;2023-07-13T02:22:50;18.20;99.90
11047;DHT22;5576;50.008;10.596;2023-07-13T02:25:16;18.00;99.90
11047;DHT22;5576;50.008;10.596;2023-07-13T02:27:41;20.60;99.90
11047;DHT22;5576;50.008;10.596;2023-07-13T02:30:09;17.90;99.90
11047;DHT22;5576;50.008;10.596;2023-07-13T02:32:35;20.10;99.90
11047;DHT22;5576;50.008;10.596;2023-07-13T02:35:01;20.10;99.90
11047;DHT22;5576;50.008;10.596;2023-07-13T02:37:28;17.80;99.90
11047;DHT22;5576;50.008;10.596;2023-07-13T02:39:55;17.90;99.90
11047;DHT22;5576;50.008;10.596;2023-07-13T02:42:22;17.80;99.90
11047;DHT22;5576;50.008;10.596;2023-07-13T02:44:48;20.80;99.90
11047;DHT22;5576;50.008;10.596;2023-07-13T02:47:15;17.70;99.90
11047;DHT22;5576;50.008;10.596;2023-07-13T02:49:40;17.60;99.90
11047;DHT22;5576;50.008;10.596;2023-07-13T02:52:06;19.20;99.90
11047;DHT22;5576;50.008;10.596;2023-07-13T02:54:32;17.40;99.90
11047;DHT22;5576;50.008;10.596;2023-07-13T02:56:58;17.40;99.90
11047;DHT22;5576;50.008;10.596;2023-07-13T02:59:24;17.80;99.90
11047;DHT22;5576;50.008;10.596;2023-07-13T03:01:50;20.20;99.90
11047;DHT22;5576;50.008;10.596;2023-07-13T03:04:15;17.70;99.90
11047;DHT22;5576;50.008;10.596;2023-07-13T03:09:13;17.30;99.90
11047;DHT22;5576;50.008;10.596;2023-07-13T03:11:42;17.20;99.90
11047;DHT22;5576;50.008;10.596;2023-07-13T03:14:17;17.30;99.90
11047;DHT22;5576;50.008;10.596;2023-07-13T03:16:43;17.40;99.90
11047;DHT22;5576;50.008;10.596;2023-07-13T03:19:09;17.40;99.90
11047;DHT22;5576;50.008;10.596;2023-07-13T03:21:35;17.30;99.90
11047;DHT22;5576;50.008;10.596;2023-07-13T03:24:01;17.10;99.90
11047;DHT22;5576;50.008;10.596;2023-07-13T03:26:27;17.10;99.90
11047;DHT22;5576;50.008;10.596;2023-07-13T03:28:53;12.90;99.90
11047;DHT22;5576;50.008;10.596;2023-07-13T03:31:25;17.40;99.90
11047;DHT22;5576;50.008;10.596;2023-07-13T03:33:51;17.20;99.90
11047;DHT22;5576;50.008;10.596;2023-07-13T03:36:21;18.40;99.90
11047;DHT22;5576;50.008;10.596;2023-07-13T03:38:51;17.00;99.90
11047;DHT22;5576;50.008;10.596;2023-07-13T03:41:22;17.00;99.90
11047;DHT22;5576;50.008;10.596;2023-07-13T03:43:49;16.90;99.90
11047;DHT22;5576;50.008;10.596;2023-07-13T03:46:18;17.00;99.90
11047;DHT22;5576;50.008;10.596;2023-07-13T03:48:45;17.00;99.90
11047;DHT22;5576;50.008;10.596;2023-07-13T03:51:12;17.10;99.90
11047;DHT22;5576;50.008;10.596;2023-07-13T03:53:42;17.20;99.90
11047;DHT22;5576;50.008;10.596;2023-07-13T03:56:09;21.40;99.90
11047;DHT22;5576;50.008;10.596;2023-07-13T03:58:38;17.00;99.90
11047;DHT22;5576;50.008;10.596;2023-07-13T04:01:11;19.80;99.90
11047;DHT22;5576;50.008;10.596;2023-07-13T04:03:38;17.00;99.90
11047;DHT22;5576;50.008;10.596;2023-07-13T04:06:07;16.90;99.90
11047;DHT22;5576;50.008;10.596;2023-07-13T04:08:35;16.90;99.90
11047;DHT22;5576;50.008;10.596;2023-07-13T04:11:03;16.90;99.90
11047;DHT22;5576;50.008;10.596;2023-07-13T04:13:29;17.00;99.90
11047;DHT22;5576;50.008;10.596;2023-07-13T04:15:55;16.90;99.90
11047;DHT22;5576;50.008;10.596;2023-07-13T04:18:21;16.80;99.90
11047;DHT22;5576;50.008;10.596;2023-07-13T04:20:48;16.80;99.90
11047;DHT22;5576;50.008;10.596;2023-07-13T04:23:15;16.60;99.90
11047;DHT22;5576;50.008;10.596;2023-07-13T04:25:51;18.60;99.90
11047;DHT22;5576;50.008;10.596;2023-07-13T04:28:20;14.90;99.90
11047;DHT22;5576;50.008;10.596;2023-07-13T04:30:46;16.40;99.90
11047;DHT22;5576;50.008;10.596;2023-07-13T04:33:12;16.60;99.90
11047;DHT22;5576;50.008;10.596;2023-07-13T04:35:38;16.70;99.90
11047;DHT22;5576;50.008;10.596;2023-07-13T04:38:04;20.60;99.90
11047;DHT22;5576;50.008;10.596;2023-07-13T04:40:30;16.60;99.90
11047;DHT22;5576;50.008;10.596;2023-07-13T04:42:56;16.70;99.90
11047;DHT22;5576;50.008;10.596;2023-07-13T04:45:22;16.70;99.90
11047;DHT22;5576;50.008;10.596;2023-07-13T04:47:49;16.80;99.90
11047;DHT22;5576;50.008;10.596;2023-07-13T04:50:15;16.80;99.90
11047;DHT22;5576;50.008;10.596;2023-07-13T04:52:45;16.80;99.90
11047;DHT22;5576;50.008;10.596;2023-07-13T04:55:11;17.20;99.90
11047;DHT22;5576;50.008;10.596;2023-07-13T04:57:37;14.40;99.90
11047;DHT22;5576;50.008;10.596;2023-07-13T05:00:04;17.30;99.90
11047;DHT22;5576;50.008;10.596;2023-07-13T05:02:33;17.40;99.90
11047;DHT22;5576;50.008;10.596;2023-07-13T05:04:59;17.50;99.90
11047;DHT22;5576;50.008;10.596;2023-07-13T05:07:25;17.70;99.90
11047;DHT22;5576;50.008;10.596;2023-07-13T05:09:51;17.90;99.90
11047;DHT22;5576;50.008;10.596;2023-07-13T05:12:18;15.70;99.90
11047;DHT22;5576;50.008;10.596;2023-07-13T05:14:43;18.20;99.90
11047;DHT22;5576;50.008;10.596;2023-07-13T05:17:09;18.20;99.90
11047;DHT22;5576;50.008;10.596;2023-07-13T05:19:36;16.60;99.90
11047;DHT22;5576;50.008;10.596;2023-07-13T05:22:01;18.40;99.90
11047;DHT22;5576;50.008;10.596;2023-07-13T05:24:28;21.60;99.90
11047;DHT22;5576;50.008;10.596;2023-07-13T05:26:54;18.70;99.90
11047;DHT22;5576;50.008;10.596;2023-07-13T05:29:21;18.80;99.90
11047;DHT22;5576;50.008;10.596;2023-07-13T05:31:47;18.80;99.90
11047;DHT22;5576;50.008;10.596;2023-07-13T05:34:12;21.80;99.90
11047;DHT22;5576;50.008;10.596;2023-07-13T05:36:38;18.90;99.90
11047;DHT22;5576;50.008;10.596;2023-07-13T05:39:04;18.90;99.90
11047;DHT22;5576;50.008;10.596;2023-07-13T05:41:30;19.00;99.90
11047;DHT22;5576;50.008;10.596;2023-07-13T05:43:56;19.00;99.90
11047;DHT22;5576;50.008;10.596;2023-07-13T05:46:22;19.10;99.90
11047;DHT22;5576;50.008;10.596;2023-07-13T05:48:47;19.10;99.90
11047;DHT22;5576;50.008;10.596;2023-07-13T05:51:13;20.90;99.90
11047;DHT22;5576;50.008;10.596;2023-07-13T05:53:39;17.80;99.90
11047;DHT22;5576;50.008;10.596;2023-07-13T05:56:05;19.00;99.90
11047;DHT22;5576;50.008;10.596;2023-07-13T05:58:31;19.00;99.90
11047;DHT22;5576;50.008;10.596;2023-07-13T06:01:06;19.00;99.90
11047;DHT22;5576;50.008;10.596;2023-07-13T06:03:33;19.00;99.90
11047;DHT22;5576;50.008;10.596;2023-07-13T06:05:59;19.00;99.90
11047;DHT22;5576;50.008;10.596;2023-07-13T06:08:26;19.00;99.90
11047;DHT22;5576;50.008;10.596;2023-07-13T06:10:52;19.10;99.90
11047;DHT22;5576;50.008;10.596;2023-07-13T06:13:18;19.20;99.90
11047;DHT22;5576;50.008;10.596;2023-07-13T06:15:48;19.90;99.90
11047;DHT22;5576;50.008;10.596;2023-07-13T06:18:14;19.30;99.90
11047;DHT22;5576;50.008;10.596;2023-07-13T06:20:40;19.40;99.90
11047;DHT22;5576;50.008;10.596;2023-07-13T06:23:06;19.50;99.90
11047;DHT22;5576;50.008;10.596;2023-07-13T06:25:31;15.70;99.90
11047;DHT22;5576;50.008;10.596;2023-07-13T06:27:57;18.20;99.90
11047;DHT22;5576;50.008;10.596;2023-07-13T06:30:23;19.70;99.90
11047;DHT22;5576;50.008;10.596;2023-07-13T06:32:50;19.70;99.90
11047;DHT22;5576;50.008;10.596;2023-07-13T06:35:16;19.60;99.90
11047;DHT22;5576;50.008;10.596;2023-07-13T06:37:41;19.70;99.90
11047;DHT22;5576;50.008;10.596;2023-07-13T06:40:08;19.60;99.90
11047;DHT22;5576;50.008;10.596;2023-07-13T06:42:33;19.70;99.90
11047;DHT22;5576;50.008;10.596;2023-07-13T06:44:59;19.70;99.90
11047;DHT22;5576;50.008;10.596;2023-07-13T06:47:25;23.00;99.90
11047;DHT22;5576;50.008;10.596;2023-07-13T06:49:50;19.80;99.90
11047;DHT22;5576;50.008;10.596;2023-07-13T06:52:16;19.90;99.90
11047;DHT22;5576;50.008;10.596;2023-07-13T06:54:42;19.90;99.90
11047;DHT22;5576;50.008;10.596;2023-07-13T06:57:08;22.00;99.90
11047;DHT22;5576;50.008;10.596;2023-07-13T06:59:33;19.90;99.90
11047;DHT22;5576;50.008;10.596;2023-07-13T07:01:59;19.90;99.90
11047;DHT22;5576;50.008;10.596;2023-07-13T07:04:25;19.80;99.90
11047;DHT22;5576;50.008;10.596;2023-07-13T07:06:50;19.90;99.90
11047;DHT22;5576;50.008;10.596;2023-07-13T07:09:16;22.10;99.90
11047;DHT22;5576;50.008;10.596;2023-07-13T07:11:42;20.00;99.90
11047;DHT22;5576;50.008;10.596;2023-07-13T07:14:08;20.00;99.90
11047;DHT22;5576;50.008;10.596;2023-07-13T07:16:34;19.10;99.90
11047;DHT22;5576;50.008;10.596;2023-07-13T07:19:00;20.10;99.90
11047;DHT22;5576;50.008;10.596;2023-07-13T07:21:26;20.10;99.90
11047;DHT22;5576;50.008;10.596;2023-07-13T07:23:52;20.10;99.90
11047;DHT22;5576;50.008;10.596;2023-07-13T07:26:18;20.10;99.90
11047;DHT22;5576;50.008;10.596;2023-07-13T07:28:44;20.10;99.90
11047;DHT22;5576;50.008;10.596;2023-07-13T07:31:10;20.20;99.90
11047;DHT22;5576;50.008;10.596;2023-07-13T07:33:36;23.00;99.90
11047;DHT22;5576;50.008;10.596;2023-07-13T07:36:04;20.20;99.90
11047;DHT22;5576;50.008;10.596;2023-07-13T07:38:30;19.10;99.90
11047;DHT22;5576;50.008;10.596;2023-07-13T07:40:56;20.40;99.90
11047;DHT22;5576;50.008;10.596;2023-07-13T07:43:21;20.40;99.90
11047;DHT22;5576;50.008;10.596;2023-07-13T07:45:47;20.50;99.90
11047;DHT22;5576;50.008;10.596;2023-07-13T07:48:13;21.70;99.90
11047;DHT22;5576;50.008;10.596;2023-07-13T07:50:38;20.60;99.90
11047;DHT22;5576;50.008;10.596;2023-07-13T07:53:06;20.70;99.90
11047;DHT22;5576;50.008;10.596;2023-07-13T07:55:34;20.80;99.90
11047;DHT22;5576;50.008;10.596;2023-07-13T07:58:00;20.80;99.90
11047;DHT22;5576;50.008;10.596;2023-07-13T08:00:26;20.90;99.90
11047;DHT22;5576;50.008;10.596;2023-07-13T08:02:53;21.10;99.90
11047;DHT22;5576;50.008;10.596;2023-07-13T08:05:19;21.20;99.90
11047;DHT22;5576;50.008;10.596;2023-07-13T08:07:45;21.30;99.90
11047;DHT22;5576;50.008;10.596;2023-07-13T08:10:11;21.30;99.90
11047;DHT22;5576;50.008;10.596;2023-07-13T08:12:38;21.40;99.90
11047;DHT22;5576;50.008;10.596;2023-07-13T08:15:05;21.60;99.90
11047;DHT22;5576;50.008;10.596;2023-07-13T08:17:31;21.60;99.90
11047;DHT22;5576;50.008;10.596;2023-07-13T08:19:57;21.80;99.90
11047;DHT22;5576;50.008;10.596;2023-07-13T08:22:22;21.90;99.90
11047;DHT22;5576;50.008;10.596;2023-07-13T08:24:48;22.00;99.90
11047;DHT22;5576;50.008;10.596;2023-07-13T08:27:21;18.50;99.90
11047;DHT22;5576;50.008;10.596;2023-07-13T08:29:48;22.10;99.90
11047;DHT22;5576;50.008;10.596;2023-07-13T08:32:14;22.10;99.90
11047;DHT22;5576;50.008;10.596;2023-07-13T08:34:40;22.30;99.90
11047;DHT22;5576;50.008;10.596;2023-07-13T08:37:07;22.40;99.90
11047;DHT22;5576;50.008;10.596;2023-07-13T08:39:33;22.50;99.90
11047;DHT22;5576;50.008;10.596;2023-07-13T08:42:30;22.70;99.90
11047;DHT22;5576;50.008;10.596;2023-07-13T08:45:06;23.80;99.90
11047;DHT22;5576;50.008;10.596;2023-07-13T08:47:35;22.80;99.90
11047;DHT22;5576;50.008;10.596;2023-07-13T08:50:04;22.80;99.90
11047;DHT22;5576;50.008;10.596;2023-07-13T08:52:37;22.90;99.90
11047;DHT22;5576;50.008;10.596;2023-07-13T08:55:27;23.00;99.90
11047;DHT22;5576;50.008;10.596;2023-07-13T08:58:12;23.00;99.90
11047;DHT22;5576;50.008;10.596;2023-07-13T09:00:48;23.00;99.90
11047;DHT22;5576;50.008;10.596;2023-07-13T09:03:23;24.90;99.90
11047;DHT22;5576;50.008;10.596;2023-07-13T09:05:54;23.30;99.90
11047;DHT22;5576;50.008;10.596;2023-07-13T09:11:17;23.30;99.90
11047;DHT22;5576;50.008;10.596;2023-07-13T09:13:55;23.50;99.90
11047;DHT22;5576;50.008;10.596;2023-07-13T09:16:25;23.60;99.90
11047;DHT22;5576;50.008;10.596;2023-07-13T09:18:54;23.60;99.90
11047;DHT22;5576;50.008;10.596;2023-07-13T09:21:30;23.60;99.90
11047;DHT22;5576;50.008;10.596;2023-07-13T09:24:01;23.70;99.90
11047;DHT22;5576;50.008;10.596;2023-07-13T09:26:28;23.90;99.90
11047;DHT22;5576;50.008;10.596;2023-07-13T09:28:59;24.00;99.90
11047;DHT22;5576;50.008;10.596;2023-07-13T09:31:34;24.10;99.90
11047;DHT22;5576;50.008;10.596;2023-07-13T09:34:02;23.10;99.90
11047;DHT22;5576;50.008;10.596;2023-07-13T09:36:30;21.70;99.90
11047;DHT22;5576;50.008;10.596;2023-07-13T09:39:03;24.10;99.90
11047;DHT22;5576;50.008;10.596;2023-07-13T09:46:57;22.60;99.90
11047;DHT22;5576;50.008;10.596;2023-07-13T09:49:28;24.20;99.90
11047;DHT22;5576;50.008;10.596;2023-07-13T09:51:59;24.40;99.90
11047;DHT22;5576;50.008;10.596;2023-07-13T09:54:26;24.30;99.90
11047;DHT22;5576;50.008;10.596;2023-07-13T09:56:56;24.30;99.90
11047;DHT22;5576;50.008;10.596;2023-07-13T09:59:26;24.50;99.90
11047;DHT22;5576;50.008;10.596;2023-07-13T10:01:52;24.50;99.90
11047;DHT22;5576;50.008;10.596;2023-07-13T10:04:19;24.50;99.90
11047;DHT22;5576;50.008;10.596;2023-07-13T10:06:46;24.50;99.90
11047;DHT22;5576;50.008;10.596;2023-07-13T10:09:16;24.60;99.90
11047;DHT22;5576;50.008;10.596;2023-07-13T10:11:42;24.90;99.90
11047;DHT22;5576;50.008;10.596;2023-07-13T10:14:18;24.70;99.90
11047;DHT22;5576;50.008;10.596;2023-07-13T10:16:47;23.60;99.90
11047;DHT22;5576;50.008;10.596;2023-07-13T10:19:21;27.60;99.90
11047;DHT22;5576;50.008;10.596;2023-07-13T10:21:55;24.90;99.90
11047;DHT22;5576;50.008;10.596;2023-07-13T10:24:24;25.00;99.90
11047;DHT22;5576;50.008;10.596;2023-07-13T10:26:57;23.20;99.90
11047;DHT22;5576;50.008;10.596;2023-07-13T10:29:26;25.20;99.90
11047;DHT22;5576;50.008;10.596;2023-07-13T10:31:53;25.40;99.90
11047;DHT22;5576;50.008;10.596;2023-07-13T10:34:19;22.80;99.90
11047;DHT22;5576;50.008;10.596;2023-07-13T10:36:47;25.30;99.90
11047;DHT22;5576;50.008;10.596;2023-07-13T10:39:19;25.30;99.90
11047;DHT22;5576;50.008;10.596;2023-07-13T10:41:49;25.30;99.90
11047;DHT22;5576;50.008;10.596;2023-07-13T10:44:32;25.40;99.90
11047;DHT22;5576;50.008;10.596;2023-07-13T10:47:02;25.50;99.90
11047;DHT22;5576;50.008;10.596;2023-07-13T10:49:31;25.60;99.90
11047;DHT22;5576;50.008;10.596;2023-07-13T10:51:57;25.60;99.90
11047;DHT22;5576;50.008;10.596;2023-07-13T10:54:32;21.40;98.60
11047;DHT22;5576;50.008;10.596;2023-07-13T10:57:17;25.20;99.60
11047;DHT22;5576;50.008;10.596;2023-07-13T10:59:49;26.90;99.90
11047;DHT22;5576;50.008;10.596;2023-07-13T11:02:34;26.80;99.90
11047;DHT22;5576;50.008;10.596;2023-07-13T11:05:26;24.60;99.90
11047;DHT22;5576;50.008;10.596;2023-07-13T11:07:56;24.60;99.90
11047;DHT22;5576;50.008;10.596;2023-07-13T11:10:49;24.80;99.90
11047;DHT22;5576;50.008;10.596;2023-07-13T11:13:54;25.10;99.90
11047;DHT22;5576;50.008;10.596;2023-07-13T11:18:52;25.10;99.90
11047;DHT22;5576;50.008;10.596;2023-07-13T11:21:20;24.60;99.90
11047;DHT22;5576;50.008;10.596;2023-07-13T11:24:01;21.40;99.30
11047;DHT22;5576;50.008;10.596;2023-07-13T11:31:51;24.10;99.40
11047;DHT22;5576;50.008;10.596;2023-07-13T11:34:27;24.90;99.90
11047;DHT22;5576;50.008;10.596;2023-07-13T11:36:56;25.20;99.40
11047;DHT22;5576;50.008;10.596;2023-07-13T11:39:31;25.10;98.50
11047;DHT22;5576;50.008;10.596;2023-07-13T11:42:01;24.90;99.50
11047;DHT22;5576;50.008;10.596;2023-07-13T11:44:30;24.90;99.80
11047;DHT22;5576;50.008;10.596;2023-07-13T11:46:58;24.90;99.60
11047;DHT22;5576;50.008;10.596;2023-07-13T11:49:30;25.00;99.90
11047;DHT22;5576;50.008;10.596;2023-07-13T11:51:58;25.30;99.20
11047;DHT22;5576;50.008;10.596;2023-07-13T11:54:28;25.60;99.30
11047;DHT22;5576;50.008;10.596;2023-07-13T11:56:58;22.60;97.70
11047;DHT22;5576;50.008;10.596;2023-07-13T11:59:28;26.30;99.70
11047;DHT22;5576;50.008;10.596;2023-07-13T12:01:55;26.30;98.20
11047;DHT22;5576;50.008;10.596;2023-07-13T12:04:24;26.10;97.70
11047;DHT22;5576;50.008;10.596;2023-07-13T12:07:05;26.20;98.00
11047;DHT22;5576;50.008;10.596;2023-07-13T12:09:33;26.40;98.20
11047;DHT22;5576;50.008;10.596;2023-07-13T12:11:59;26.70;97.70
11047;DHT22;5576;50.008;10.596;2023-07-13T12:14:26;26.90;96.90
11047;DHT22;5576;50.008;10.596;2023-07-13T12:16:53;27.10;96.10
11047;DHT22;5576;50.008;10.596;2023-07-13T12:19:25;27.20;97.50
11047;DHT22;5576;50.008;10.596;2023-07-13T12:21:55;27.20;96.30
11047;DHT22;5576;50.008;10.596;2023-07-13T12:24:22;27.20;96.50
11047;DHT22;5576;50.008;10.596;2023-07-13T12:27:04;27.10;96.70
11047;DHT22;5576;50.008;10.596;2023-07-13T12:29:32;27.10;97.40
11047;DHT22;5576;50.008;10.596;2023-07-13T12:31:58;27.00;96.90
11047;DHT22;5576;50.008;10.596;2023-07-13T12:34:26;26.80;97.00
11047;DHT22;5576;50.008;10.596;2023-07-13T12:36:54;23.20;95.00
11047;DHT22;5576;50.008;10.596;2023-07-13T12:41:53;26.70;96.80
11047;DHT22;5576;50.008;10.596;2023-07-13T12:44:27;26.70;96.70
11047;DHT22;5576;50.008;10.596;2023-07-13T12:47:13;26.50;96.30
11047;DHT22;5576;50.008;10.596;2023-07-13T12:49:48;28.60;97.60
11047;DHT22;5576;50.008;10.596;2023-07-13T12:52:20;26.40;96.50
11047;DHT22;5576;50.008;10.596;2023-07-13T12:55:07;26.10;96.50
11047;DHT22;5576;50.008;10.596;2023-07-13T12:57:55;26.10;96.90
11047;DHT22;5576;50.008;10.596;2023-07-13T13:00:31;26.20;96.90
11047;DHT22;5576;50.008;10.596;2023-07-13T13:03:07;26.30;97.20
11047;DHT22;5576;50.008;10.596;2023-07-13T13:05:36;26.60;96.80
11047;DHT22;5576;50.008;10.596;2023-07-13T13:08:03;26.70;97.10
11047;DHT22;5576;50.008;10.596;2023-07-13T13:10:29;26.90;96.60
11047;DHT22;5576;50.008;10.596;2023-07-13T13:12:55;27.20;96.00
11047;DHT22;5576;50.008;10.596;2023-07-13T13:15:21;29.90;96.00
11047;DHT22;5576;50.008;10.596;2023-07-13T13:17:47;27.00;95.50
11047;DHT22;5576;50.008;10.596;2023-07-13T13:20:18;27.00;95.50
11047;DHT22;5576;50.008;10.596;2023-07-13T13:22:45;27.20;95.80
11047;DHT22;5576;50.008;10.596;2023-07-13T13:25:12;27.50;94.50
11047;DHT22;5576;50.008;10.596;2023-07-13T13:27:40;27.60;94.80
11047;DHT22;5576;50.008;10.596;2023-07-13T13:30:12;27.70;93.30
11047;DHT22;5576;50.008;10.596;2023-07-13T13:32:40;23.80;92.50
11047;DHT22;5576;50.008;10.596;2023-07-13T13:35:13;27.20;94.30
11047;DHT22;5576;50.008;10.596;2023-07-13T13:37:39;27.10;94.60
11047;DHT22;5576;50.008;10.596;2023-07-13T13:40:22;27.00;94.80
11047;DHT22;5576;50.008;10.596;2023-07-13T13:42:49;27.20;94.40
11047;DHT22;5576;50.008;10.596;2023-07-13T13:45:16;26.90;93.60
11047;DHT22;5576;50.008;10.596;2023-07-13T13:47:44;26.90;94.00
11047;DHT22;5576;50.008;10.596;2023-07-13T13:52:43;26.90;94.60
11047;DHT22;5576;50.008;10.596;2023-07-13T13:57:39;28.20;95.20
11047;DHT22;5576;50.008;10.596;2023-07-13T14:00:05;27.30;93.90
11047;DHT22;5576;50.008;10.596;2023-07-13T14:02:32;28.20;94.50
11047;DHT22;5576;50.008;10.596;2023-07-13T14:05:00;27.60;94.10
11047;DHT22;5576;50.008;10.596;2023-07-13T14:07:26;27.40;93.50
11047;DHT22;5576;50.008;10.596;2023-07-13T14:09:54;27.30;94.50
11047;DHT22;5576;50.008;10.596;2023-07-13T14:12:21;27.20;93.80
11047;DHT22;5576;50.008;10.596;2023-07-13T14:14:46;27.10;94.20
11047;DHT22;5576;50.008;10.596;2023-07-13T14:17:20;27.40;93.30
11047;DHT22;5576;50.008;10.596;2023-07-13T14:19:48;24.20;92.80
11047;DHT22;5576;50.008;10.596;2023-07-13T14:22:17;27.80;93.80
11047;DHT22;5576;50.008;10.596;2023-07-13T14:24:44;27.80;93.50
11047;DHT22;5576;50.008;10.596;2023-07-13T14:27:11;27.90;93.80
11047;DHT22;5576;50.008;10.596;2023-07-13T14:29:37;27.80;93.60
11047;DHT22;5576;50.008;10.596;2023-07-13T14:32:03;26.70;92.40
11047;DHT22;5576;50.008;10.596;2023-07-13T14:34:30;25.40;91.90
11047;DHT22;5576;50.008;10.596;2023-07-13T14:36:56;27.20;92.80
11047;DHT22;5576;50.008;10.596;2023-07-13T14:39:23;27.20;93.50
11047;DHT22;5576;50.008;10.596;2023-07-13T14:41:51;27.50;93.40
11047;DHT22;5576;50.008;10.596;2023-07-13T14:44:21;27.40;93.00
11047;DHT22;5576;50.008;10.596;2023-07-13T14:46:49;27.10;93.10
11047;DHT22;5576;50.008;10.596;2023-07-13T14:49:35;26.80;93.80
11047;DHT22;5576;50.008;10.596;2023-07-13T14:52:20;26.70;93.60
11047;DHT22;5576;50.008;10.596;2023-07-13T14:54:46;26.50;93.90
11047;DHT22;5576;50.008;10.596;2023-07-13T14:57:15;26.40;93.90
11047;DHT22;5576;50.008;10.596;2023-07-13T14:59:42;26.30;94.30
11047;DHT22;5576;50.008;10.596;2023-07-13T15:02:17;26.20;94.50
11047;DHT22;5576;50.008;10.596;2023-07-13T15:04:44;26.20;94.50
11047;DHT22;5576;50.008;10.596;2023-07-13T15:07:11;26.10;94.40
11047;DHT22;5576;50.008;10.596;2023-07-13T15:09:37;22.20;93.60
11047;DHT22;5576;50.008;10.596;2023-07-13T15:12:03;26.20;95.00
11047;DHT22;5576;50.008;10.596;2023-07-13T15:14:31;27.60;95.20
11047;DHT22;5576;50.008;10.596;2023-07-13T15:16:58;28.90;95.00
11047;DHT22;5576;50.008;10.596;2023-07-13T15:19:25;26.80;94.20
11047;DHT22;5576;50.008;10.596;2023-07-13T15:21:52;26.70;94.60
11047;DHT22;5576;50.008;10.596;2023-07-13T15:24:20;26.70;94.30
11047;DHT22;5576;50.008;10.596;2023-07-13T15:26:47;26.70;94.60
11047;DHT22;5576;50.008;10.596;2023-07-13T15:29:15;26.80;94.80
11047;DHT22;5576;50.008;10.596;2023-07-13T15:31:41;26.70;95.00
11047;DHT22;5576;50.008;10.596;2023-07-13T15:34:11;26.60;94.60
11047;DHT22;5576;50.008;10.596;2023-07-13T15:36:37;26.50;94.40
11047;DHT22;5576;50.008;10.596;2023-07-13T15:39:03;26.50;95.20
11047;DHT22;5576;50.008;10.596;2023-07-13T15:41:29;26.30;94.80
11047;DHT22;5576;50.008;10.596;2023-07-13T15:43:58;26.20;94.70
11047;DHT22;5576;50.008;10.596;2023-07-13T15:46:24;26.00;94.60
11047;DHT22;5576;50.008;10.596;2023-07-13T15:48:52;25.80;94.90
11047;DHT22;5576;50.008;10.596;2023-07-13T15:51:29;26.00;96.00
11047;DHT22;5576;50.008;10.596;2023-07-13T15:54:00;26.30;95.50
11047;DHT22;5576;50.008;10.596;2023-07-13T15:56:31;26.20;94.70
11047;DHT22;5576;50.008;10.596;2023-07-13T15:58:59;26.40;95.00
11047;DHT22;5576;50.008;10.596;2023-07-13T16:01:24;25.40;95.00
11047;DHT22;5576;50.008;10.596;2023-07-13T16:03:51;30.20;96.40
11047;DHT22;5576;50.008;10.596;2023-07-13T16:06:23;23.90;93.70